Terminal Aerodrome Forecast
Issued by NWS

Home | Current Version | Previous Version | Text Only | Print | Product List | Glossary On
Versions: 1 2 3 4 5 6 7 8 9 10 11 12 13 14 15 16 17 18
000
FTUS44 KHGX 300520
TAFCXO
TAF
KCXO 300520Z 3006/3106 00000KT P6SM BKN250
     FM301400 14004KT P6SM BKN025 BKN150
     FM301700 16005KT P6SM SCT035 BKN150
     FM302200 15006KT P6SM SCT045 SCT150
     FM310100 VRB03KT P6SM FEW025=

USA.gov is the U.S. government's official web portal to all federal, state and local government web resources and services.